Terminal Aerodrome Forecast
Issued by NWS

Home | Current Version | Previous Version | Text Only | Print | Product List | Glossary On
Versions: 1 2 3 4 5 6 7 8 9 10 11 12 13 14 15 16 17 18 19 20 21 22 23 24 25 26 27 28 29
000
FTUS42 KRAH 220835 AAA
TAFRWI
TAF AMD
KRWI 220835Z 2209/2306 31008KT 6SM -SHRA SCT030 BKN050 BKN080
     FM220900 30007KT P6SM SCT030 BKN050 BKN080
     FM221430 32013G23KT P6SM VCSH BKN035
      TEMPO 2216/2219 6SM -SHRA SCT025 OVC035
     FM222200 33009KT P6SM SCT040=

USA.gov is the U.S. government's official web portal to all federal, state and local government web resources and services.